sensor_id;sensor_type;location;lat;lon;timestamp;P1;durP1;ratioP1;P2;durP2;ratioP2
31990;SDS011;18508;49.386;8.370;2023-01-09T00:01:43;7.13;;;3.70;;
31990;SDS011;18508;49.386;8.370;2023-01-09T00:04:14;6.28;;;3.65;;
31990;SDS011;18508;49.386;8.370;2023-01-09T00:06:43;8.73;;;3.78;;
31990;SDS011;18508;49.386;8.370;2023-01-09T00:09:18;4.72;;;2.92;;
31990;SDS011;18508;49.386;8.370;2023-01-09T00:11:48;7.63;;;3.03;;
31990;SDS011;18508;49.386;8.370;2023-01-09T00:14:17;5.63;;;3.17;;
31990;SDS011;18508;49.386;8.370;2023-01-09T00:16:45;4.35;;;2.35;;
31990;SDS011;18508;49.386;8.370;2023-01-09T00:19:15;4.93;;;2.70;;
31990;SDS011;18508;49.386;8.370;2023-01-09T00:21:43;6.55;;;2.60;;
31990;SDS011;18508;49.386;8.370;2023-01-09T00:24:11;4.35;;;2.30;;
31990;SDS011;18508;49.386;8.370;2023-01-09T00:26:39;4.32;;;2.33;;
31990;SDS011;18508;49.386;8.370;2023-01-09T00:29:08;4.45;;;2.47;;
31990;SDS011;18508;49.386;8.370;2023-01-09T00:31:37;3.58;;;2.10;;
31990;SDS011;18508;49.386;8.370;2023-01-09T00:34:06;3.65;;;2.20;;
31990;SDS011;18508;49.386;8.370;2023-01-09T00:36:37;5.15;;;2.10;;
31990;SDS011;18508;49.386;8.370;2023-01-09T00:39:05;4.30;;;1.77;;
31990;SDS011;18508;49.386;8.370;2023-01-09T00:41:34;3.22;;;1.73;;
31990;SDS011;18508;49.386;8.370;2023-01-09T00:44:07;4.68;;;1.60;;
31990;SDS011;18508;49.386;8.370;2023-01-09T00:46:40;2.72;;;1.60;;
31990;SDS011;18508;49.386;8.370;2023-01-09T00:49:11;2.80;;;1.58;;
31990;SDS011;18508;49.386;8.370;2023-01-09T00:51:43;2.80;;;1.40;;
31990;SDS011;18508;49.386;8.370;2023-01-09T00:54:12;3.72;;;1.52;;
31990;SDS011;18508;49.386;8.370;2023-01-09T00:56:42;2.70;;;1.40;;
31990;SDS011;18508;49.386;8.370;2023-01-09T00:59:11;2.55;;;1.13;;
31990;SDS011;18508;49.386;8.370;2023-01-09T01:01:40;1.90;;;1.15;;
31990;SDS011;18508;49.386;8.370;2023-01-09T01:04:08;2.95;;;1.48;;
31990;SDS011;18508;49.386;8.370;2023-01-09T01:06:55;2.20;;;1.13;;
31990;SDS011;18508;49.386;8.370;2023-01-09T01:09:41;4.47;;;1.95;;
31990;SDS011;18508;49.386;8.370;2023-01-09T01:12:09;4.93;;;1.40;;
31990;SDS011;18508;49.386;8.370;2023-01-09T01:14:38;5.13;;;1.38;;
31990;SDS011;18508;49.386;8.370;2023-01-09T01:17:06;2.53;;;1.25;;
31990;SDS011;18508;49.386;8.370;2023-01-09T01:19:34;2.63;;;1.33;;
31990;SDS011;18508;49.386;8.370;2023-01-09T01:22:04;2.70;;;1.10;;
31990;SDS011;18508;49.386;8.370;2023-01-09T01:24:33;2.47;;;1.23;;
31990;SDS011;18508;49.386;8.370;2023-01-09T01:27:01;4.60;;;1.63;;
31990;SDS011;18508;49.386;8.370;2023-01-09T01:29:30;1.80;;;1.02;;
31990;SDS011;18508;49.386;8.370;2023-01-09T01:31:58;2.42;;;1.30;;
31990;SDS011;18508;49.386;8.370;2023-01-09T01:34:26;2.83;;;1.42;;
31990;SDS011;18508;49.386;8.370;2023-01-09T01:36:55;2.50;;;1.40;;
31990;SDS011;18508;49.386;8.370;2023-01-09T01:39:27;3.22;;;1.45;;
31990;SDS011;18508;49.386;8.370;2023-01-09T01:41:55;2.83;;;1.35;;
31990;SDS011;18508;49.386;8.370;2023-01-09T01:47:27;2.53;;;1.40;;
31990;SDS011;18508;49.386;8.370;2023-01-09T01:50:14;2.92;;;1.38;;
31990;SDS011;18508;49.386;8.370;2023-01-09T01:52:48;3.17;;;1.40;;
31990;SDS011;18508;49.386;8.370;2023-01-09T01:55:24;4.78;;;1.70;;
31990;SDS011;18508;49.386;8.370;2023-01-09T01:57:54;4.03;;;1.92;;
31990;SDS011;18508;49.386;8.370;2023-01-09T02:00:26;3.50;;;1.85;;
31990;SDS011;18508;49.386;8.370;2023-01-09T02:02:58;4.43;;;2.00;;
31990;SDS011;18508;49.386;8.370;2023-01-09T02:05:27;3.33;;;2.08;;
31990;SDS011;18508;49.386;8.370;2023-01-09T02:07:56;4.22;;;1.98;;
31990;SDS011;18508;49.386;8.370;2023-01-09T02:10:26;4.25;;;2.17;;
31990;SDS011;18508;49.386;8.370;2023-01-09T02:12:54;3.20;;;2.17;;
31990;SDS011;18508;49.386;8.370;2023-01-09T02:15:22;4.43;;;2.20;;
31990;SDS011;18508;49.386;8.370;2023-01-09T02:18:05;5.28;;;1.92;;
31990;SDS011;18508;49.386;8.370;2023-01-09T02:20:55;4.75;;;2.08;;
31990;SDS011;18508;49.386;8.370;2023-01-09T02:32:40;3.55;;;1.90;;
31990;SDS011;18508;49.386;8.370;2023-01-09T02:35:21;4.65;;;2.40;;
31990;SDS011;18508;49.386;8.370;2023-01-09T02:38:01;3.50;;;1.90;;
31990;SDS011;18508;49.386;8.370;2023-01-09T02:40:37;3.70;;;1.67;;
31990;SDS011;18508;49.386;8.370;2023-01-09T02:43:10;3.13;;;1.73;;
31990;SDS011;18508;49.386;8.370;2023-01-09T02:45:39;3.65;;;1.58;;
31990;SDS011;18508;49.386;8.370;2023-01-09T02:48:08;3.63;;;1.75;;
31990;SDS011;18508;49.386;8.370;2023-01-09T02:50:39;3.78;;;1.90;;
31990;SDS011;18508;49.386;8.370;2023-01-09T02:53:24;3.10;;;1.70;;
31990;SDS011;18508;49.386;8.370;2023-01-09T02:56:21;4.05;;;1.60;;
31990;SDS011;18508;49.386;8.370;2023-01-09T02:59:02;2.72;;;1.70;;
31990;SDS011;18508;49.386;8.370;2023-01-09T03:01:50;2.88;;;1.60;;
31990;SDS011;18508;49.386;8.370;2023-01-09T03:04:31;4.00;;;1.80;;
31990;SDS011;18508;49.386;8.370;2023-01-09T03:07:11;4.68;;;1.85;;
31990;SDS011;18508;49.386;8.370;2023-01-09T03:09:44;3.60;;;1.83;;
31990;SDS011;18508;49.386;8.370;2023-01-09T03:12:18;3.65;;;1.85;;
31990;SDS011;18508;49.386;8.370;2023-01-09T03:14:51;4.07;;;2.05;;
31990;SDS011;18508;49.386;8.370;2023-01-09T03:17:23;3.70;;;1.90;;
31990;SDS011;18508;49.386;8.370;2023-01-09T03:19:56;3.20;;;1.80;;
31990;SDS011;18508;49.386;8.370;2023-01-09T03:22:25;4.93;;;1.95;;
31990;SDS011;18508;49.386;8.370;2023-01-09T03:24:54;2.50;;;1.35;;
31990;SDS011;18508;49.386;8.370;2023-01-09T03:27:23;3.90;;;1.50;;
31990;SDS011;18508;49.386;8.370;2023-01-09T03:29:52;2.67;;;1.30;;
31990;SDS011;18508;49.386;8.370;2023-01-09T03:32:21;2.90;;;0.90;;
31990;SDS011;18508;49.386;8.370;2023-01-09T03:34:50;1.52;;;0.85;;
31990;SDS011;18508;49.386;8.370;2023-01-09T03:37:19;1.27;;;0.70;;
31990;SDS011;18508;49.386;8.370;2023-01-09T03:39:47;2.58;;;1.05;;
31990;SDS011;18508;49.386;8.370;2023-01-09T03:42:15;2.38;;;0.68;;
31990;SDS011;18508;49.386;8.370;2023-01-09T03:44:44;1.77;;;0.57;;
31990;SDS011;18508;49.386;8.370;2023-01-09T03:47:12;1.70;;;0.68;;
31990;SDS011;18508;49.386;8.370;2023-01-09T03:49:42;1.10;;;0.60;;
31990;SDS011;18508;49.386;8.370;2023-01-09T03:52:10;1.67;;;0.50;;
31990;SDS011;18508;49.386;8.370;2023-01-09T03:54:40;1.10;;;0.50;;
31990;SDS011;18508;49.386;8.370;2023-01-09T03:57:09;2.75;;;0.50;;
31990;SDS011;18508;49.386;8.370;2023-01-09T03:59:37;0.82;;;0.40;;
31990;SDS011;18508;49.386;8.370;2023-01-09T04:02:05;1.38;;;0.73;;
31990;SDS011;18508;49.386;8.370;2023-01-09T04:04:34;1.52;;;0.80;;
31990;SDS011;18508;49.386;8.370;2023-01-09T04:07:02;0.80;;;0.40;;
31990;SDS011;18508;49.386;8.370;2023-01-09T04:09:30;0.43;;;0.20;;
31990;SDS011;18508;49.386;8.370;2023-01-09T04:12:00;1.13;;;0.40;;
31990;SDS011;18508;49.386;8.370;2023-01-09T04:14:28;0.30;;;0.20;;
31990;SDS011;18508;49.386;8.370;2023-01-09T04:16:56;0.60;;;0.30;;
31990;SDS011;18508;49.386;8.370;2023-01-09T04:19:24;0.30;;;0.22;;
31990;SDS011;18508;49.386;8.370;2023-01-09T04:21:52;0.93;;;0.30;;
31990;SDS011;18508;49.386;8.370;2023-01-09T04:24:20;0.65;;;0.35;;
31990;SDS011;18508;49.386;8.370;2023-01-09T04:26:48;1.10;;;0.40;;
31990;SDS011;18508;49.386;8.370;2023-01-09T04:29:18;0.70;;;0.30;;
31990;SDS011;18508;49.386;8.370;2023-01-09T04:31:46;0.57;;;0.28;;
31990;SDS011;18508;49.386;8.370;2023-01-09T04:34:14;0.50;;;0.30;;
31990;SDS011;18508;49.386;8.370;2023-01-09T04:36:42;0.50;;;0.20;;
31990;SDS011;18508;49.386;8.370;2023-01-09T04:39:10;0.73;;;0.40;;
31990;SDS011;18508;49.386;8.370;2023-01-09T04:41:38;0.40;;;0.30;;
31990;SDS011;18508;49.386;8.370;2023-01-09T04:44:18;0.68;;;0.40;;
31990;SDS011;18508;49.386;8.370;2023-01-09T04:46:47;0.90;;;0.40;;
31990;SDS011;18508;49.386;8.370;2023-01-09T04:49:16;1.35;;;0.50;;
31990;SDS011;18508;49.386;8.370;2023-01-09T04:51:44;0.47;;;0.32;;
31990;SDS011;18508;49.386;8.370;2023-01-09T04:54:12;1.42;;;0.50;;
31990;SDS011;18508;49.386;8.370;2023-01-09T04:56:41;0.57;;;0.30;;
31990;SDS011;18508;49.386;8.370;2023-01-09T04:59:10;0.40;;;0.30;;
31990;SDS011;18508;49.386;8.370;2023-01-09T05:01:40;0.70;;;0.40;;
31990;SDS011;18508;49.386;8.370;2023-01-09T05:04:08;0.52;;;0.30;;
31990;SDS011;18508;49.386;8.370;2023-01-09T05:06:38;1.25;;;0.45;;
31990;SDS011;18508;49.386;8.370;2023-01-09T05:09:07;3.05;;;0.55;;
31990;SDS011;18508;49.386;8.370;2023-01-09T05:11:35;2.22;;;0.50;;
31990;SDS011;18508;49.386;8.370;2023-01-09T05:14:03;1.85;;;0.50;;
31990;SDS011;18508;49.386;8.370;2023-01-09T05:16:31;1.52;;;0.50;;
31990;SDS011;18508;49.386;8.370;2023-01-09T05:19:01;1.02;;;0.40;;
31990;SDS011;18508;49.386;8.370;2023-01-09T05:21:29;1.55;;;0.80;;
31990;SDS011;18508;49.386;8.370;2023-01-09T05:23:59;1.50;;;0.75;;
31990;SDS011;18508;49.386;8.370;2023-01-09T05:26:27;3.55;;;0.70;;
31990;SDS011;18508;49.386;8.370;2023-01-09T05:28:58;1.92;;;0.60;;
31990;SDS011;18508;49.386;8.370;2023-01-09T05:31:26;2.40;;;0.50;;
31990;SDS011;18508;49.386;8.370;2023-01-09T05:33:54;2.80;;;0.57;;
31990;SDS011;18508;49.386;8.370;2023-01-09T05:36:26;1.55;;;0.65;;
31990;SDS011;18508;49.386;8.370;2023-01-09T05:38:55;1.73;;;0.40;;
31990;SDS011;18508;49.386;8.370;2023-01-09T05:41:24;1.10;;;0.60;;
31990;SDS011;18508;49.386;8.370;2023-01-09T05:43:52;1.08;;;0.50;;
31990;SDS011;18508;49.386;8.370;2023-01-09T05:46:20;2.40;;;0.60;;
31990;SDS011;18508;49.386;8.370;2023-01-09T05:48:49;1.70;;;0.50;;
31990;SDS011;18508;49.386;8.370;2023-01-09T05:51:17;1.85;;;0.50;;
31990;SDS011;18508;49.386;8.370;2023-01-09T05:53:46;0.85;;;0.38;;
31990;SDS011;18508;49.386;8.370;2023-01-09T05:56:14;3.92;;;0.60;;
31990;SDS011;18508;49.386;8.370;2023-01-09T05:58:43;2.30;;;0.63;;
31990;SDS011;18508;49.386;8.370;2023-01-09T06:01:11;1.83;;;0.50;;
31990;SDS011;18508;49.386;8.370;2023-01-09T06:03:40;1.80;;;0.60;;
31990;SDS011;18508;49.386;8.370;2023-01-09T06:06:08;1.48;;;0.70;;
31990;SDS011;18508;49.386;8.370;2023-01-09T06:08:36;2.70;;;0.60;;
31990;SDS011;18508;49.386;8.370;2023-01-09T06:11:05;2.40;;;0.80;;
31990;SDS011;18508;49.386;8.370;2023-01-09T06:13:33;3.67;;;1.00;;
31990;SDS011;18508;49.386;8.370;2023-01-09T06:16:01;3.30;;;0.70;;
31990;SDS011;18508;49.386;8.370;2023-01-09T06:18:29;2.88;;;0.88;;
31990;SDS011;18508;49.386;8.370;2023-01-09T06:20:57;4.68;;;0.90;;
31990;SDS011;18508;49.386;8.370;2023-01-09T06:23:25;4.75;;;1.20;;
31990;SDS011;18508;49.386;8.370;2023-01-09T06:25:53;4.93;;;1.15;;
31990;SDS011;18508;49.386;8.370;2023-01-09T06:28:23;4.25;;;1.30;;
31990;SDS011;18508;49.386;8.370;2023-01-09T06:30:51;2.72;;;1.10;;
31990;SDS011;18508;49.386;8.370;2023-01-09T06:33:19;2.72;;;0.88;;
31990;SDS011;18508;49.386;8.370;2023-01-09T06:35:47;1.67;;;0.80;;
31990;SDS011;18508;49.386;8.370;2023-01-09T06:38:15;2.10;;;0.90;;
31990;SDS011;18508;49.386;8.370;2023-01-09T06:40:43;2.65;;;0.77;;
31990;SDS011;18508;49.386;8.370;2023-01-09T06:43:13;3.58;;;0.80;;
31990;SDS011;18508;49.386;8.370;2023-01-09T06:45:43;3.35;;;1.08;;
31990;SDS011;18508;49.386;8.370;2023-01-09T06:48:11;2.10;;;0.65;;
31990;SDS011;18508;49.386;8.370;2023-01-09T06:50:39;5.70;;;0.90;;
31990;SDS011;18508;49.386;8.370;2023-01-09T06:53:08;3.80;;;0.95;;
31990;SDS011;18508;49.386;8.370;2023-01-09T06:55:37;1.90;;;0.88;;
31990;SDS011;18508;49.386;8.370;2023-01-09T06:58:05;4.75;;;1.38;;
31990;SDS011;18508;49.386;8.370;2023-01-09T07:00:35;5.85;;;1.80;;
31990;SDS011;18508;49.386;8.370;2023-01-09T07:03:06;4.25;;;1.15;;
31990;SDS011;18508;49.386;8.370;2023-01-09T07:05:39;3.70;;;0.98;;
31990;SDS011;18508;49.386;8.370;2023-01-09T07:08:08;4.28;;;1.00;;
31990;SDS011;18508;49.386;8.370;2023-01-09T07:10:36;2.38;;;0.90;;
31990;SDS011;18508;49.386;8.370;2023-01-09T07:13:04;2.85;;;0.60;;
31990;SDS011;18508;49.386;8.370;2023-01-09T07:15:32;1.88;;;0.75;;
31990;SDS011;18508;49.386;8.370;2023-01-09T07:18:00;3.97;;;0.93;;
31990;SDS011;18508;49.386;8.370;2023-01-09T07:20:30;1.55;;;0.63;;
31990;SDS011;18508;49.386;8.370;2023-01-09T07:22:58;4.13;;;1.05;;
31990;SDS011;18508;49.386;8.370;2023-01-09T07:25:27;5.07;;;0.90;;
31990;SDS011;18508;49.386;8.370;2023-01-09T07:27:55;3.72;;;0.75;;
31990;SDS011;18508;49.386;8.370;2023-01-09T07:30:23;2.55;;;0.80;;
31990;SDS011;18508;49.386;8.370;2023-01-09T07:32:51;5.18;;;0.88;;
31990;SDS011;18508;49.386;8.370;2023-01-09T07:35:21;4.03;;;0.90;;
31990;SDS011;18508;49.386;8.370;2023-01-09T07:37:51;2.88;;;0.65;;
31990;SDS011;18508;49.386;8.370;2023-01-09T07:40:19;3.65;;;0.88;;
31990;SDS011;18508;49.386;8.370;2023-01-09T07:42:48;9.02;;;1.13;;
31990;SDS011;18508;49.386;8.370;2023-01-09T07:45:18;4.60;;;0.90;;
31990;SDS011;18508;49.386;8.370;2023-01-09T07:47:47;7.47;;;1.38;;
31990;SDS011;18508;49.386;8.370;2023-01-09T07:50:15;4.45;;;1.10;;
31990;SDS011;18508;49.386;8.370;2023-01-09T07:52:43;5.32;;;1.00;;
31990;SDS011;18508;49.386;8.370;2023-01-09T07:55:13;3.17;;;0.73;;
31990;SDS011;18508;49.386;8.370;2023-01-09T07:57:42;7.18;;;1.23;;
31990;SDS011;18508;49.386;8.370;2023-01-09T08:00:15;3.97;;;0.90;;
31990;SDS011;18508;49.386;8.370;2023-01-09T08:02:44;5.20;;;0.80;;
31990;SDS011;18508;49.386;8.370;2023-01-09T08:05:12;4.65;;;0.80;;
31990;SDS011;18508;49.386;8.370;2023-01-09T08:07:41;7.30;;;1.20;;
31990;SDS011;18508;49.386;8.370;2023-01-09T08:10:09;3.28;;;0.90;;
31990;SDS011;18508;49.386;8.370;2023-01-09T08:12:42;3.95;;;1.13;;
31990;SDS011;18508;49.386;8.370;2023-01-09T08:15:10;3.97;;;1.25;;
31990;SDS011;18508;49.386;8.370;2023-01-09T08:17:39;6.22;;;1.35;;
31990;SDS011;18508;49.386;8.370;2023-01-09T08:20:09;5.90;;;1.15;;
31990;SDS011;18508;49.386;8.370;2023-01-09T08:22:37;5.85;;;1.50;;
31990;SDS011;18508;49.386;8.370;2023-01-09T08:25:11;7.25;;;1.13;;
31990;SDS011;18508;49.386;8.370;2023-01-09T08:27:41;4.57;;;0.80;;
31990;SDS011;18508;49.386;8.370;2023-01-09T08:30:10;5.53;;;1.48;;
31990;SDS011;18508;49.386;8.370;2023-01-09T08:32:39;5.60;;;0.90;;
31990;SDS011;18508;49.386;8.370;2023-01-09T08:35:08;6.03;;;0.88;;
31990;SDS011;18508;49.386;8.370;2023-01-09T08:37:36;6.70;;;1.20;;
31990;SDS011;18508;49.386;8.370;2023-01-09T08:40:05;6.50;;;0.80;;
31990;SDS011;18508;49.386;8.370;2023-01-09T08:42:34;10.25;;;0.80;;
31990;SDS011;18508;49.386;8.370;2023-01-09T08:45:21;5.50;;;1.20;;
31990;SDS011;18508;49.386;8.370;2023-01-09T08:48:06;2.72;;;0.68;;
31990;SDS011;18508;49.386;8.370;2023-01-09T08:50:34;5.55;;;0.85;;
31990;SDS011;18508;49.386;8.370;2023-01-09T08:53:02;5.07;;;0.70;;
31990;SDS011;18508;49.386;8.370;2023-01-09T08:55:31;2.25;;;0.80;;
31990;SDS011;18508;49.386;8.370;2023-01-09T08:57:59;6.82;;;0.90;;
31990;SDS011;18508;49.386;8.370;2023-01-09T09:00:29;7.38;;;0.82;;
31990;SDS011;18508;49.386;8.370;2023-01-09T09:02:59;2.40;;;0.70;;
31990;SDS011;18508;49.386;8.370;2023-01-09T09:05:28;3.58;;;1.10;;
31990;SDS011;18508;49.386;8.370;2023-01-09T09:07:57;3.95;;;0.70;;
31990;SDS011;18508;49.386;8.370;2023-01-09T09:10:26;5.28;;;0.88;;
31990;SDS011;18508;49.386;8.370;2023-01-09T09:12:56;3.22;;;0.47;;
31990;SDS011;18508;49.386;8.370;2023-01-09T09:15:26;2.88;;;0.60;;
31990;SDS011;18508;49.386;8.370;2023-01-09T09:17:56;2.20;;;0.50;;
31990;SDS011;18508;49.386;8.370;2023-01-09T09:20:27;5.50;;;1.33;;
31990;SDS011;18508;49.386;8.370;2023-01-09T09:22:56;4.03;;;0.93;;
31990;SDS011;18508;49.386;8.370;2023-01-09T09:25:24;1.98;;;0.40;;
31990;SDS011;18508;49.386;8.370;2023-01-09T09:27:53;4.15;;;0.60;;
31990;SDS011;18508;49.386;8.370;2023-01-09T09:30:22;5.10;;;0.70;;
31990;SDS011;18508;49.386;8.370;2023-01-09T09:32:50;2.50;;;0.68;;
31990;SDS011;18508;49.386;8.370;2023-01-09T09:35:20;3.05;;;0.70;;
31990;SDS011;18508;49.386;8.370;2023-01-09T09:37:51;5.10;;;0.60;;
31990;SDS011;18508;49.386;8.370;2023-01-09T09:43:02;5.20;;;0.73;;
31990;SDS011;18508;49.386;8.370;2023-01-09T09:46:00;3.20;;;0.82;;
31990;SDS011;18508;49.386;8.370;2023-01-09T09:48:40;3.08;;;0.80;;
31990;SDS011;18508;49.386;8.370;2023-01-09T09:51:23;4.65;;;0.88;;
31990;SDS011;18508;49.386;8.370;2023-01-09T09:54:01;2.28;;;0.50;;
31990;SDS011;18508;49.386;8.370;2023-01-09T09:56:37;2.78;;;1.27;;
31990;SDS011;18508;49.386;8.370;2023-01-09T09:59:14;2.92;;;0.60;;
31990;SDS011;18508;49.386;8.370;2023-01-09T10:01:47;2.58;;;0.57;;
31990;SDS011;18508;49.386;8.370;2023-01-09T10:04:20;2.22;;;0.90;;
31990;SDS011;18508;49.386;8.370;2023-01-09T10:06:53;3.75;;;0.63;;
31990;SDS011;18508;49.386;8.370;2023-01-09T10:09:28;3.38;;;0.57;;
31990;SDS011;18508;49.386;8.370;2023-01-09T10:12:09;4.03;;;0.85;;
31990;SDS011;18508;49.386;8.370;2023-01-09T10:14:47;2.20;;;0.80;;
31990;SDS011;18508;49.386;8.370;2023-01-09T10:17:19;2.78;;;0.70;;
31990;SDS011;18508;49.386;8.370;2023-01-09T10:20:02;2.50;;;0.82;;
31990;SDS011;18508;49.386;8.370;2023-01-09T10:22:50;4.22;;;0.65;;
31990;SDS011;18508;49.386;8.370;2023-01-09T10:25:26;2.45;;;0.90;;
31990;SDS011;18508;49.386;8.370;2023-01-09T10:28:09;2.50;;;0.70;;
31990;SDS011;18508;49.386;8.370;2023-01-09T10:30:49;3.67;;;0.88;;
31990;SDS011;18508;49.386;8.370;2023-01-09T10:33:23;2.10;;;0.70;;
31990;SDS011;18508;49.386;8.370;2023-01-09T10:36:06;3.22;;;0.70;;
31990;SDS011;18508;49.386;8.370;2023-01-09T10:38:49;5.13;;;0.98;;
31990;SDS011;18508;49.386;8.370;2023-01-09T10:41:21;5.03;;;0.73;;
31990;SDS011;18508;49.386;8.370;2023-01-09T10:43:55;2.80;;;0.80;;
31990;SDS011;18508;49.386;8.370;2023-01-09T10:46:29;5.60;;;1.40;;
31990;SDS011;18508;49.386;8.370;2023-01-09T10:49:04;16.15;;;6.47;;
31990;SDS011;18508;49.386;8.370;2023-01-09T10:51:38;14.18;;;5.78;;
31990;SDS011;18508;49.386;8.370;2023-01-09T10:54:14;7.97;;;3.30;;
31990;SDS011;18508;49.386;8.370;2023-01-09T10:59:17;3.08;;;1.25;;
31990;SDS011;18508;49.386;8.370;2023-01-09T11:01:45;3.10;;;1.20;;
31990;SDS011;18508;49.386;8.370;2023-01-09T11:04:16;3.58;;;0.88;;
31990;SDS011;18508;49.386;8.370;2023-01-09T11:06:52;1.90;;;0.80;;
31990;SDS011;18508;49.386;8.370;2023-01-09T11:09:26;3.08;;;0.95;;
31990;SDS011;18508;49.386;8.370;2023-01-09T11:11:54;2.67;;;0.90;;
31990;SDS011;18508;49.386;8.370;2023-01-09T11:14:23;2.58;;;0.68;;
31990;SDS011;18508;49.386;8.370;2023-01-09T11:16:57;3.75;;;1.20;;
31990;SDS011;18508;49.386;8.370;2023-01-09T11:19:28;4.68;;;1.02;;
31990;SDS011;18508;49.386;8.370;2023-01-09T11:22:05;4.43;;;0.90;;
31990;SDS011;18508;49.386;8.370;2023-01-09T11:24:36;3.25;;;1.20;;
31990;SDS011;18508;49.386;8.370;2023-01-09T11:27:18;3.67;;;1.10;;
31990;SDS011;18508;49.386;8.370;2023-01-09T11:32:43;4.88;;;1.55;;
31990;SDS011;18508;49.386;8.370;2023-01-09T11:35:20;4.13;;;1.45;;
31990;SDS011;18508;49.386;8.370;2023-01-09T11:37:58;3.80;;;1.42;;
31990;SDS011;18508;49.386;8.370;2023-01-09T11:40:46;4.28;;;1.50;;
31990;SDS011;18508;49.386;8.370;2023-01-09T11:43:17;2.88;;;1.30;;
31990;SDS011;18508;49.386;8.370;2023-01-09T11:45:51;4.05;;;1.60;;
31990;SDS011;18508;49.386;8.370;2023-01-09T11:48:28;3.63;;;0.80;;
31990;SDS011;18508;49.386;8.370;2023-01-09T11:51:10;3.67;;;1.10;;
31990;SDS011;18508;49.386;8.370;2023-01-09T11:53:47;2.03;;;0.73;;
31990;SDS011;18508;49.386;8.370;2023-01-09T11:56:25;3.72;;;1.20;;
31990;SDS011;18508;49.386;8.370;2023-01-09T11:58:54;2.30;;;1.05;;
31990;SDS011;18508;49.386;8.370;2023-01-09T12:01:29;1.83;;;0.77;;
31990;SDS011;18508;49.386;8.370;2023-01-09T12:04:22;4.43;;;1.27;;
31990;SDS011;18508;49.386;8.370;2023-01-09T12:06:59;2.70;;;1.27;;
31990;SDS011;18508;49.386;8.370;2023-01-09T12:09:54;5.82;;;1.80;;
31990;SDS011;18508;49.386;8.370;2023-01-09T12:12:33;6.32;;;1.80;;
31990;SDS011;18508;49.386;8.370;2023-01-09T12:15:13;2.63;;;1.20;;
31990;SDS011;18508;49.386;8.370;2023-01-09T12:18:06;4.22;;;1.45;;
31990;SDS011;18508;49.386;8.370;2023-01-09T12:20:57;3.10;;;1.55;;
31990;SDS011;18508;49.386;8.370;2023-01-09T12:23:40;4.85;;;1.23;;
31990;SDS011;18508;49.386;8.370;2023-01-09T12:26:18;2.33;;;0.88;;
31990;SDS011;18508;49.386;8.370;2023-01-09T12:28:58;2.15;;;0.80;;
31990;SDS011;18508;49.386;8.370;2023-01-09T12:32:02;1.95;;;0.80;;
31990;SDS011;18508;49.386;8.370;2023-01-09T12:34:43;3.85;;;1.00;;
31990;SDS011;18508;49.386;8.370;2023-01-09T12:37:27;2.78;;;0.85;;
31990;SDS011;18508;49.386;8.370;2023-01-09T12:40:10;2.88;;;1.00;;
31990;SDS011;18508;49.386;8.370;2023-01-09T12:42:50;2.45;;;0.80;;
31990;SDS011;18508;49.386;8.370;2023-01-09T12:45:33;1.42;;;0.50;;
31990;SDS011;18508;49.386;8.370;2023-01-09T12:48:16;1.35;;;0.65;;
31990;SDS011;18508;49.386;8.370;2023-01-09T12:50:59;0.70;;;0.40;;
31990;SDS011;18508;49.386;8.370;2023-01-09T12:53:36;1.27;;;0.40;;
31990;SDS011;18508;49.386;8.370;2023-01-09T12:56:08;3.17;;;0.47;;
31990;SDS011;18508;49.386;8.370;2023-01-09T12:58:40;1.15;;;0.47;;
31990;SDS011;18508;49.386;8.370;2023-01-09T13:03:46;3.22;;;0.75;;
31990;SDS011;18508;49.386;8.370;2023-01-09T13:06:22;2.13;;;0.40;;
31990;SDS011;18508;49.386;8.370;2023-01-09T13:08:54;2.92;;;0.75;;
31990;SDS011;18508;49.386;8.370;2023-01-09T13:11:33;0.95;;;0.20;;
31990;SDS011;18508;49.386;8.370;2023-01-09T13:14:09;0.80;;;0.20;;
31990;SDS011;18508;49.386;8.370;2023-01-09T13:16:45;0.68;;;0.30;;
31990;SDS011;18508;49.386;8.370;2023-01-09T13:19:15;1.38;;;0.30;;
31990;SDS011;18508;49.386;8.370;2023-01-09T13:21:47;0.85;;;0.30;;
31990;SDS011;18508;49.386;8.370;2023-01-09T13:24:17;2.38;;;0.20;;
31990;SDS011;18508;49.386;8.370;2023-01-09T13:26:50;0.85;;;0.20;;
31990;SDS011;18508;49.386;8.370;2023-01-09T13:29:22;0.90;;;0.32;;
31990;SDS011;18508;49.386;8.370;2023-01-09T13:32:09;1.73;;;0.43;;
31990;SDS011;18508;49.386;8.370;2023-01-09T13:35:03;0.63;;;0.20;;
31990;SDS011;18508;49.386;8.370;2023-01-09T13:37:35;1.40;;;0.30;;
31990;SDS011;18508;49.386;8.370;2023-01-09T13:40:04;1.00;;;0.40;;
31990;SDS011;18508;49.386;8.370;2023-01-09T13:42:43;0.45;;;0.13;;
31990;SDS011;18508;49.386;8.370;2023-01-09T13:45:22;2.47;;;0.30;;
31990;SDS011;18508;49.386;8.370;2023-01-09T13:54:00;1.98;;;0.32;;
31990;SDS011;18508;49.386;8.370;2023-01-09T13:56:28;2.83;;;0.50;;
31990;SDS011;18508;49.386;8.370;2023-01-09T13:58:57;1.23;;;0.35;;
31990;SDS011;18508;49.386;8.370;2023-01-09T14:01:41;4.53;;;0.50;;
31990;SDS011;18508;49.386;8.370;2023-01-09T14:04:36;1.17;;;0.38;;
31990;SDS011;18508;49.386;8.370;2023-01-09T14:07:23;2.13;;;0.43;;
31990;SDS011;18508;49.386;8.370;2023-01-09T14:09:55;2.30;;;0.55;;
31990;SDS011;18508;49.386;8.370;2023-01-09T14:12:25;1.90;;;0.60;;
31990;SDS011;18508;49.386;8.370;2023-01-09T14:14:56;4.03;;;0.77;;
31990;SDS011;18508;49.386;8.370;2023-01-09T14:17:29;1.42;;;0.40;;
31990;SDS011;18508;49.386;8.370;2023-01-09T14:20:00;1.48;;;0.28;;
31990;SDS011;18508;49.386;8.370;2023-01-09T14:22:32;2.05;;;0.70;;
31990;SDS011;18508;49.386;8.370;2023-01-09T14:25:23;0.35;;;0.35;;
31990;SDS011;18508;49.386;8.370;2023-01-09T14:28:04;1.50;;;0.43;;
31990;SDS011;18508;49.386;8.370;2023-01-09T14:37:00;1.20;;;0.30;;
31990;SDS011;18508;49.386;8.370;2023-01-09T14:39:29;1.35;;;0.20;;
31990;SDS011;18508;49.386;8.370;2023-01-09T14:42:00;2.47;;;0.47;;
31990;SDS011;18508;49.386;8.370;2023-01-09T14:44:37;1.13;;;0.40;;
31990;SDS011;18508;49.386;8.370;2023-01-09T14:47:14;1.25;;;0.40;;
31990;SDS011;18508;49.386;8.370;2023-01-09T14:49:47;0.30;;;0.28;;
31990;SDS011;18508;49.386;8.370;2023-01-09T14:52:21;4.93;;;0.52;;
31990;SDS011;18508;49.386;8.370;2023-01-09T14:54:51;2.20;;;0.50;;
31990;SDS011;18508;49.386;8.370;2023-01-09T14:57:26;0.95;;;0.30;;
31990;SDS011;18508;49.386;8.370;2023-01-09T14:59:58;1.13;;;0.40;;
31990;SDS011;18508;49.386;8.370;2023-01-09T15:02:29;1.85;;;0.30;;
31990;SDS011;18508;49.386;8.370;2023-01-09T15:05:01;3.20;;;0.55;;
31990;SDS011;18508;49.386;8.370;2023-01-09T15:07:35;1.23;;;0.38;;
31990;SDS011;18508;49.386;8.370;2023-01-09T15:10:13;2.15;;;0.73;;
31990;SDS011;18508;49.386;8.370;2023-01-09T15:12:45;2.53;;;0.50;;
31990;SDS011;18508;49.386;8.370;2023-01-09T15:15:16;1.65;;;0.60;;
31990;SDS011;18508;49.386;8.370;2023-01-09T15:17:49;2.60;;;0.93;;
31990;SDS011;18508;49.386;8.370;2023-01-09T15:20:23;2.50;;;0.55;;
31990;SDS011;18508;49.386;8.370;2023-01-09T15:22:54;1.67;;;0.57;;
31990;SDS011;18508;49.386;8.370;2023-01-09T15:25:24;2.53;;;0.75;;
31990;SDS011;18508;49.386;8.370;2023-01-09T15:28:18;4.57;;;0.82;;
31990;SDS011;18508;49.386;8.370;2023-01-09T15:30:52;3.08;;;0.35;;
31990;SDS011;18508;49.386;8.370;2023-01-09T15:33:23;6.15;;;1.77;;
31990;SDS011;18508;49.386;8.370;2023-01-09T15:35:51;2.10;;;0.73;;
31990;SDS011;18508;49.386;8.370;2023-01-09T15:38:25;4.53;;;0.90;;
31990;SDS011;18508;49.386;8.370;2023-01-09T15:40:57;1.95;;;0.60;;
31990;SDS011;18508;49.386;8.370;2023-01-09T15:43:28;1.55;;;0.60;;
31990;SDS011;18508;49.386;8.370;2023-01-09T15:45:58;2.17;;;0.60;;
31990;SDS011;18508;49.386;8.370;2023-01-09T15:48:28;1.75;;;0.60;;
31990;SDS011;18508;49.386;8.370;2023-01-09T15:51:00;2.33;;;0.70;;
31990;SDS011;18508;49.386;8.370;2023-01-09T15:53:30;3.80;;;0.82;;
31990;SDS011;18508;49.386;8.370;2023-01-09T15:56:11;2.00;;;0.70;;